sensor_id;sensor_type;location;lat;lon;timestamp;temperature;humidity
43414;DHT22;29013;49.676;8.606;2022-09-16T00:03:06;16.4;99.9
43414;DHT22;29013;49.676;8.606;2022-09-16T00:08:33;16.4;99.9
43414;DHT22;29013;49.676;8.606;2022-09-16T00:13:55;16.5;99.9
43414;DHT22;29013;49.676;8.606;2022-09-16T00:19:20;16.4;99.9
43414;DHT22;29013;49.676;8.606;2022-09-16T00:24:46;16.4;99.9
43414;DHT22;29013;49.676;8.606;2022-09-16T00:30:12;16.4;99.9
43414;DHT22;29013;49.676;8.606;2022-09-16T00:35:34;16.4;99.9
43414;DHT22;29013;49.676;8.606;2022-09-16T00:40:57;16.4;99.9
43414;DHT22;29013;49.676;8.606;2022-09-16T00:46:24;16.4;99.9
43414;DHT22;29013;49.676;8.606;2022-09-16T00:51:46;16.4;99.9
43414;DHT22;29013;49.676;8.606;2022-09-16T00:57:09;16.4;99.9
43414;DHT22;29013;49.676;8.606;2022-09-16T01:02:32;16.4;99.9
43414;DHT22;29013;49.676;8.606;2022-09-16T01:07:55;16.4;99.9
43414;DHT22;29013;49.676;8.606;2022-09-16T01:13:16;16.4;99.9
43414;DHT22;29013;49.676;8.606;2022-09-16T01:18:45;16.4;99.9
43414;DHT22;29013;49.676;8.606;2022-09-16T01:30:15;16.4;99.9
43414;DHT22;29013;49.676;8.606;2022-09-16T01:35:54;16.4;99.9
43414;DHT22;29013;49.676;8.606;2022-09-16T01:41:15;16.4;99.9
43414;DHT22;29013;49.676;8.606;2022-09-16T01:46:38;16.3;99.9
43414;DHT22;29013;49.676;8.606;2022-09-16T01:52:00;16.3;99.9
43414;DHT22;29013;49.676;8.606;2022-09-16T01:57:20;16.2;99.9
43414;DHT22;29013;49.676;8.606;2022-09-16T02:02:44;16.1;99.9
43414;DHT22;29013;49.676;8.606;2022-09-16T02:08:06;16.1;99.9
43414;DHT22;29013;49.676;8.606;2022-09-16T02:13:28;16.0;99.9
43414;DHT22;29013;49.676;8.606;2022-09-16T02:18:50;16.0;99.9
43414;DHT22;29013;49.676;8.606;2022-09-16T02:24:12;16.1;99.9
43414;DHT22;29013;49.676;8.606;2022-09-16T02:29:36;16.2;99.9
43414;DHT22;29013;49.676;8.606;2022-09-16T02:34:59;16.1;99.9
43414;DHT22;29013;49.676;8.606;2022-09-16T02:40:22;16.0;99.9
43414;DHT22;29013;49.676;8.606;2022-09-16T02:45:47;15.9;99.9
43414;DHT22;29013;49.676;8.606;2022-09-16T02:51:17;15.9;99.9
43414;DHT22;29013;49.676;8.606;2022-09-16T02:56:43;15.9;99.9
43414;DHT22;29013;49.676;8.606;2022-09-16T03:02:07;15.9;99.9
43414;DHT22;29013;49.676;8.606;2022-09-16T03:13:01;15.8;99.9
43414;DHT22;29013;49.676;8.606;2022-09-16T03:18:45;15.8;99.9
43414;DHT22;29013;49.676;8.606;2022-09-16T03:24:08;15.9;99.9
43414;DHT22;29013;49.676;8.606;2022-09-16T03:29:33;15.9;99.9
43414;DHT22;29013;49.676;8.606;2022-09-16T03:34:58;15.9;99.9
43414;DHT22;29013;49.676;8.606;2022-09-16T03:40:24;15.7;99.9
43414;DHT22;29013;49.676;8.606;2022-09-16T03:45:50;15.6;99.9
43414;DHT22;29013;49.676;8.606;2022-09-16T03:51:18;15.7;99.9
43414;DHT22;29013;49.676;8.606;2022-09-16T03:56:39;15.7;99.9
43414;DHT22;29013;49.676;8.606;2022-09-16T04:02:07;15.8;99.9
43414;DHT22;29013;49.676;8.606;2022-09-16T04:07:31;15.8;99.9
43414;DHT22;29013;49.676;8.606;2022-09-16T04:12:56;15.7;99.9
43414;DHT22;29013;49.676;8.606;2022-09-16T04:18:37;15.6;99.9
43414;DHT22;29013;49.676;8.606;2022-09-16T04:24:15;15.5;99.9
43414;DHT22;29013;49.676;8.606;2022-09-16T04:29:39;15.7;99.9
43414;DHT22;29013;49.676;8.606;2022-09-16T04:35:06;15.7;99.9
43414;DHT22;29013;49.676;8.606;2022-09-16T04:40:30;15.7;99.9
43414;DHT22;29013;49.676;8.606;2022-09-16T04:45:59;15.7;99.9
43414;DHT22;29013;49.676;8.606;2022-09-16T04:51:26;15.6;99.9
43414;DHT22;29013;49.676;8.606;2022-09-16T04:56:53;15.6;99.9
43414;DHT22;29013;49.676;8.606;2022-09-16T05:02:18;15.6;99.9
43414;DHT22;29013;49.676;8.606;2022-09-16T05:07:40;15.6;99.9
43414;DHT22;29013;49.676;8.606;2022-09-16T05:13:02;15.6;99.9
43414;DHT22;29013;49.676;8.606;2022-09-16T05:18:24;15.7;99.9
43414;DHT22;29013;49.676;8.606;2022-09-16T05:23:46;15.6;99.9
43414;DHT22;29013;49.676;8.606;2022-09-16T05:29:14;15.5;99.9
43414;DHT22;29013;49.676;8.606;2022-09-16T05:34:39;15.5;99.9
43414;DHT22;29013;49.676;8.606;2022-09-16T05:40:07;15.6;99.9
43414;DHT22;29013;49.676;8.606;2022-09-16T05:45:28;15.6;99.9
43414;DHT22;29013;49.676;8.606;2022-09-16T05:51:10;15.7;99.9
43414;DHT22;29013;49.676;8.606;2022-09-16T05:56:32;15.7;99.9
43414;DHT22;29013;49.676;8.606;2022-09-16T06:01:58;15.7;99.9
43414;DHT22;29013;49.676;8.606;2022-09-16T06:07:26;15.7;99.9
43414;DHT22;29013;49.676;8.606;2022-09-16T06:12:54;15.7;99.9
43414;DHT22;29013;49.676;8.606;2022-09-16T06:18:16;15.7;99.9
43414;DHT22;29013;49.676;8.606;2022-09-16T06:23:43;15.8;99.9
43414;DHT22;29013;49.676;8.606;2022-09-16T06:29:07;15.8;99.9
43414;DHT22;29013;49.676;8.606;2022-09-16T06:34:28;15.8;99.9
43414;DHT22;29013;49.676;8.606;2022-09-16T06:39:52;15.8;99.9
43414;DHT22;29013;49.676;8.606;2022-09-16T06:45:18;15.8;99.9
43414;DHT22;29013;49.676;8.606;2022-09-16T06:50:46;15.8;99.9
43414;DHT22;29013;49.676;8.606;2022-09-16T06:56:09;15.9;99.9
43414;DHT22;29013;49.676;8.606;2022-09-16T07:01:56;16.0;99.9
43414;DHT22;29013;49.676;8.606;2022-09-16T07:07:24;16.2;99.9
43414;DHT22;29013;49.676;8.606;2022-09-16T07:12:51;16.2;99.9
43414;DHT22;29013;49.676;8.606;2022-09-16T07:18:15;16.2;99.9
43414;DHT22;29013;49.676;8.606;2022-09-16T07:23:40;16.2;99.9
43414;DHT22;29013;49.676;8.606;2022-09-16T07:29:03;16.3;99.9
43414;DHT22;29013;49.676;8.606;2022-09-16T07:34:28;16.4;99.9
43414;DHT22;29013;49.676;8.606;2022-09-16T07:39:57;16.3;99.9
43414;DHT22;29013;49.676;8.606;2022-09-16T07:45:21;16.4;99.9
43414;DHT22;29013;49.676;8.606;2022-09-16T07:50:54;16.6;99.9
43414;DHT22;29013;49.676;8.606;2022-09-16T07:56:19;16.9;99.9
43414;DHT22;29013;49.676;8.606;2022-09-16T08:01:45;17.1;99.9
43414;DHT22;29013;49.676;8.606;2022-09-16T08:07:11;17.2;99.4
43414;DHT22;29013;49.676;8.606;2022-09-16T08:12:39;17.3;99.4
43414;DHT22;29013;49.676;8.606;2022-09-16T08:18:03;17.3;99.1
43414;DHT22;29013;49.676;8.606;2022-09-16T08:23:31;17.3;98.5
43414;DHT22;29013;49.676;8.606;2022-09-16T08:28:57;17.3;99.2
43414;DHT22;29013;49.676;8.606;2022-09-16T08:34:21;17.2;98.5
43414;DHT22;29013;49.676;8.606;2022-09-16T08:39:44;17.2;98.4
43414;DHT22;29013;49.676;8.606;2022-09-16T08:45:19;17.2;98.8
43414;DHT22;29013;49.676;8.606;2022-09-16T08:50:43;17.4;99.5
43414;DHT22;29013;49.676;8.606;2022-09-16T08:56:10;18.0;97.7
43414;DHT22;29013;49.676;8.606;2022-09-16T09:02:38;18.3;98.9
43414;DHT22;29013;49.676;8.606;2022-09-16T09:08:15;19.2;94.9
43414;DHT22;29013;49.676;8.606;2022-09-16T09:13:53;19.0;93.6
43414;DHT22;29013;49.676;8.606;2022-09-16T09:19:22;18.7;93.5
43414;DHT22;29013;49.676;8.606;2022-09-16T09:25:04;18.7;94.2
43414;DHT22;29013;49.676;8.606;2022-09-16T09:30:27;18.6;93.1
43414;DHT22;29013;49.676;8.606;2022-09-16T09:36:03;18.7;93.5
43414;DHT22;29013;49.676;8.606;2022-09-16T09:41:30;19.1;93.3
43414;DHT22;29013;49.676;8.606;2022-09-16T09:46:55;19.6;92.2
43414;DHT22;29013;49.676;8.606;2022-09-16T09:52:20;19.7;90.1
43414;DHT22;29013;49.676;8.606;2022-09-16T09:57:54;19.5;91.1
43414;DHT22;29013;49.676;8.606;2022-09-16T10:03:17;19.1;90.4
43414;DHT22;29013;49.676;8.606;2022-09-16T10:08:42;19.1;90.6
43414;DHT22;29013;49.676;8.606;2022-09-16T10:14:05;19.0;90.7
43414;DHT22;29013;49.676;8.606;2022-09-16T10:19:34;18.8;91.9
43414;DHT22;29013;49.676;8.606;2022-09-16T10:24:57;18.7;91.2
43414;DHT22;29013;49.676;8.606;2022-09-16T10:30:23;18.6;88.2
43414;DHT22;29013;49.676;8.606;2022-09-16T10:35:54;18.3;89.5
43414;DHT22;29013;49.676;8.606;2022-09-16T10:41:20;18.2;90.0
43414;DHT22;29013;49.676;8.606;2022-09-16T10:46:53;18.7;90.3
43414;DHT22;29013;49.676;8.606;2022-09-16T10:52:21;19.5;88.3
43414;DHT22;29013;49.676;8.606;2022-09-16T10:57:42;20.0;87.9
43414;DHT22;29013;49.676;8.606;2022-09-16T11:03:30;19.9;87.6
43414;DHT22;29013;49.676;8.606;2022-09-16T11:08:56;19.8;86.4
43414;DHT22;29013;49.676;8.606;2022-09-16T11:14:27;19.7;87.0
43414;DHT22;29013;49.676;8.606;2022-09-16T11:19:54;19.8;86.4
43414;DHT22;29013;49.676;8.606;2022-09-16T11:25:37;19.6;85.2
43414;DHT22;29013;49.676;8.606;2022-09-16T11:31:04;19.3;85.6
43414;DHT22;29013;49.676;8.606;2022-09-16T11:36:39;19.0;86.1
43414;DHT22;29013;49.676;8.606;2022-09-16T11:42:05;18.6;94.0
43414;DHT22;29013;49.676;8.606;2022-09-16T11:47:44;18.2;97.3
43414;DHT22;29013;49.676;8.606;2022-09-16T11:53:24;17.8;97.7
43414;DHT22;29013;49.676;8.606;2022-09-16T11:58:48;17.5;98.9
43414;DHT22;29013;49.676;8.606;2022-09-16T12:04:16;17.5;99.5
43414;DHT22;29013;49.676;8.606;2022-09-16T12:09:38;17.7;99.1
43414;DHT22;29013;49.676;8.606;2022-09-16T12:15:14;18.1;97.7
43414;DHT22;29013;49.676;8.606;2022-09-16T12:20:33;18.5;94.7
43414;DHT22;29013;49.676;8.606;2022-09-16T12:26:03;18.4;94.0
43414;DHT22;29013;49.676;8.606;2022-09-16T12:31:28;18.2;95.3
43414;DHT22;29013;49.676;8.606;2022-09-16T12:36:54;18.4;94.5
43414;DHT22;29013;49.676;8.606;2022-09-16T12:48:42;19.1;90.9
43414;DHT22;29013;49.676;8.606;2022-09-16T12:54:31;19.5;91.3
43414;DHT22;29013;49.676;8.606;2022-09-16T13:00:03;19.6;90.3
43414;DHT22;29013;49.676;8.606;2022-09-16T13:05:27;19.6;89.9
43414;DHT22;29013;49.676;8.606;2022-09-16T13:10:55;19.7;90.1
43414;DHT22;29013;49.676;8.606;2022-09-16T13:16:30;19.8;90.2
43414;DHT22;29013;49.676;8.606;2022-09-16T13:21:53;19.4;84.9
43414;DHT22;29013;49.676;8.606;2022-09-16T13:27:33;19.2;87.7
43414;DHT22;29013;49.676;8.606;2022-09-16T13:38:39;18.7;86.9
43414;DHT22;29013;49.676;8.606;2022-09-16T13:44:26;18.5;91.4
43414;DHT22;29013;49.676;8.606;2022-09-16T13:49:25;17.8;92.5
43414;DHT22;29013;49.676;8.606;2022-09-16T13:54:52;17.3;95.4
43414;DHT22;29013;49.676;8.606;2022-09-16T14:00:19;17.1;97.1
43414;DHT22;29013;49.676;8.606;2022-09-16T14:05:52;17.1;95.9
43414;DHT22;29013;49.676;8.606;2022-09-16T14:11:17;17.1;95.7
43414;DHT22;29013;49.676;8.606;2022-09-16T14:16:42;16.9;98.9
43414;DHT22;29013;49.676;8.606;2022-09-16T14:22:13;16.8;98.9
43414;DHT22;29013;49.676;8.606;2022-09-16T14:27:33;16.8;99.1
43414;DHT22;29013;49.676;8.606;2022-09-16T14:33:00;16.9;99.4
43414;DHT22;29013;49.676;8.606;2022-09-16T14:38:31;17.0;99.5
43414;DHT22;29013;49.676;8.606;2022-09-16T14:43:55;17.1;98.1
43414;DHT22;29013;49.676;8.606;2022-09-16T14:49:22;17.1;97.6
43414;DHT22;29013;49.676;8.606;2022-09-16T14:54:46;17.1;96.5
43414;DHT22;29013;49.676;8.606;2022-09-16T15:00:16;17.0;97.2
43414;DHT22;29013;49.676;8.606;2022-09-16T15:05:37;17.1;96.3
43414;DHT22;29013;49.676;8.606;2022-09-16T15:11:01;16.9;97.2
43414;DHT22;29013;49.676;8.606;2022-09-16T15:16:29;17.1;96.4
43414;DHT22;29013;49.676;8.606;2022-09-16T15:21:55;17.1;96.6
43414;DHT22;29013;49.676;8.606;2022-09-16T15:27:24;17.0;97.5
43414;DHT22;29013;49.676;8.606;2022-09-16T15:32:45;16.9;98.2
43414;DHT22;29013;49.676;8.606;2022-09-16T15:38:19;16.5;99.0
43414;DHT22;29013;49.676;8.606;2022-09-16T15:43:42;15.8;99.9
43414;DHT22;29013;49.676;8.606;2022-09-16T15:49:10;15.4;99.9
43414;DHT22;29013;49.676;8.606;2022-09-16T15:54:29;15.2;99.9
43414;DHT22;29013;49.676;8.606;2022-09-16T15:59:59;15.2;99.9
43414;DHT22;29013;49.676;8.606;2022-09-16T16:05:21;15.2;99.9
43414;DHT22;29013;49.676;8.606;2022-09-16T16:10:42;15.1;99.9
43414;DHT22;29013;49.676;8.606;2022-09-16T16:16:05;15.1;99.9
43414;DHT22;29013;49.676;8.606;2022-09-16T16:21:27;15.1;99.9
43414;DHT22;29013;49.676;8.606;2022-09-16T16:26:53;15.0;99.9
43414;DHT22;29013;49.676;8.606;2022-09-16T16:32:17;14.9;99.9
43414;DHT22;29013;49.676;8.606;2022-09-16T16:37:39;14.7;99.9
43414;DHT22;29013;49.676;8.606;2022-09-16T16:43:06;14.7;99.9
43414;DHT22;29013;49.676;8.606;2022-09-16T16:48:31;14.6;99.9
43414;DHT22;29013;49.676;8.606;2022-09-16T16:53:57;14.2;99.9
43414;DHT22;29013;49.676;8.606;2022-09-16T16:59:20;14.1;99.9
43414;DHT22;29013;49.676;8.606;2022-09-16T17:04:51;14.0;99.9
43414;DHT22;29013;49.676;8.606;2022-09-16T17:10:18;13.9;99.9
43414;DHT22;29013;49.676;8.606;2022-09-16T17:15:46;14.1;99.9
43414;DHT22;29013;49.676;8.606;2022-09-16T17:21:10;14.2;99.9
43414;DHT22;29013;49.676;8.606;2022-09-16T17:26:34;14.1;99.9
43414;DHT22;29013;49.676;8.606;2022-09-16T17:31:57;13.8;99.9
43414;DHT22;29013;49.676;8.606;2022-09-16T17:37:21;13.6;99.9
43414;DHT22;29013;49.676;8.606;2022-09-16T17:42:50;13.7;99.9
43414;DHT22;29013;49.676;8.606;2022-09-16T17:48:16;13.7;99.9
43414;DHT22;29013;49.676;8.606;2022-09-16T17:53:43;13.6;99.9
43414;DHT22;29013;49.676;8.606;2022-09-16T17:59:10;13.5;99.9
43414;DHT22;29013;49.676;8.606;2022-09-16T18:04:36;13.5;99.9
43414;DHT22;29013;49.676;8.606;2022-09-16T18:10:03;13.6;99.9
43414;DHT22;29013;49.676;8.606;2022-09-16T18:15:28;13.6;99.9
43414;DHT22;29013;49.676;8.606;2022-09-16T18:20:55;13.6;99.9
43414;DHT22;29013;49.676;8.606;2022-09-16T18:26:16;13.6;99.9
43414;DHT22;29013;49.676;8.606;2022-09-16T18:31:40;13.5;99.9
43414;DHT22;29013;49.676;8.606;2022-09-16T18:37:02;13.4;99.9
43414;DHT22;29013;49.676;8.606;2022-09-16T18:42:27;13.3;99.9
43414;DHT22;29013;49.676;8.606;2022-09-16T18:47:54;13.3;99.9
43414;DHT22;29013;49.676;8.606;2022-09-16T18:53:18;13.3;99.9
43414;DHT22;29013;49.676;8.606;2022-09-16T18:58:42;13.2;99.9
43414;DHT22;29013;49.676;8.606;2022-09-16T19:04:08;13.0;99.9
43414;DHT22;29013;49.676;8.606;2022-09-16T19:09:32;12.8;99.9
43414;DHT22;29013;49.676;8.606;2022-09-16T19:14:58;12.8;99.9
43414;DHT22;29013;49.676;8.606;2022-09-16T19:20:25;12.7;99.9
43414;DHT22;29013;49.676;8.606;2022-09-16T19:25:46;12.9;99.9
43414;DHT22;29013;49.676;8.606;2022-09-16T19:31:11;13.0;99.9
43414;DHT22;29013;49.676;8.606;2022-09-16T19:36:33;13.0;99.9
43414;DHT22;29013;49.676;8.606;2022-09-16T19:41:59;12.9;99.9
43414;DHT22;29013;49.676;8.606;2022-09-16T19:47:26;12.9;99.9
43414;DHT22;29013;49.676;8.606;2022-09-16T19:52:49;12.8;99.9
43414;DHT22;29013;49.676;8.606;2022-09-16T19:58:14;12.7;99.9
43414;DHT22;29013;49.676;8.606;2022-09-16T20:03:40;12.7;99.9
43414;DHT22;29013;49.676;8.606;2022-09-16T20:09:07;12.7;99.9
43414;DHT22;29013;49.676;8.606;2022-09-16T20:14:33;12.6;99.9
43414;DHT22;29013;49.676;8.606;2022-09-16T20:20:00;12.5;99.9
43414;DHT22;29013;49.676;8.606;2022-09-16T20:25:22;12.3;99.9
43414;DHT22;29013;49.676;8.606;2022-09-16T20:30:46;12.3;99.9
43414;DHT22;29013;49.676;8.606;2022-09-16T20:36:10;12.3;99.9
43414;DHT22;29013;49.676;8.606;2022-09-16T20:41:31;12.3;99.9
43414;DHT22;29013;49.676;8.606;2022-09-16T20:46:55;12.4;99.9
43414;DHT22;29013;49.676;8.606;2022-09-16T20:52:21;12.3;99.9
43414;DHT22;29013;49.676;8.606;2022-09-16T20:57:49;12.2;99.9
43414;DHT22;29013;49.676;8.606;2022-09-16T21:03:12;12.2;99.9
43414;DHT22;29013;49.676;8.606;2022-09-16T21:08:39;12.1;99.9
43414;DHT22;29013;49.676;8.606;2022-09-16T21:14:04;12.1;99.9
43414;DHT22;29013;49.676;8.606;2022-09-16T21:19:31;12.1;99.9
43414;DHT22;29013;49.676;8.606;2022-09-16T21:24:58;12.1;99.9
43414;DHT22;29013;49.676;8.606;2022-09-16T21:30:24;12.0;99.9
43414;DHT22;29013;49.676;8.606;2022-09-16T21:35:55;12.0;99.9
43414;DHT22;29013;49.676;8.606;2022-09-16T21:41:19;11.9;99.9
43414;DHT22;29013;49.676;8.606;2022-09-16T21:46:45;11.8;99.9
43414;DHT22;29013;49.676;8.606;2022-09-16T21:52:10;11.8;99.9
43414;DHT22;29013;49.676;8.606;2022-09-16T21:57:36;11.8;99.9
43414;DHT22;29013;49.676;8.606;2022-09-16T22:03:04;11.8;99.9
43414;DHT22;29013;49.676;8.606;2022-09-16T22:08:30;11.6;99.9
43414;DHT22;29013;49.676;8.606;2022-09-16T22:13:55;11.6;99.9
43414;DHT22;29013;49.676;8.606;2022-09-16T22:19:17;11.6;99.9
43414;DHT22;29013;49.676;8.606;2022-09-16T22:24:40;11.5;99.9
43414;DHT22;29013;49.676;8.606;2022-09-16T22:30:10;11.6;99.9
43414;DHT22;29013;49.676;8.606;2022-09-16T22:35:31;11.6;99.9
43414;DHT22;29013;49.676;8.606;2022-09-16T22:40:58;11.5;99.9
43414;DHT22;29013;49.676;8.606;2022-09-16T22:46:19;11.5;99.9
43414;DHT22;29013;49.676;8.606;2022-09-16T22:51:42;11.4;99.9
43414;DHT22;29013;49.676;8.606;2022-09-16T22:57:08;11.4;99.9
43414;DHT22;29013;49.676;8.606;2022-09-16T23:02:36;11.3;99.9
43414;DHT22;29013;49.676;8.606;2022-09-16T23:08:04;11.3;99.9
43414;DHT22;29013;49.676;8.606;2022-09-16T23:13:30;11.2;99.9
43414;DHT22;29013;49.676;8.606;2022-09-16T23:18:56;11.2;99.9
43414;DHT22;29013;49.676;8.606;2022-09-16T23:24:21;11.2;99.9
43414;DHT22;29013;49.676;8.606;2022-09-16T23:29:47;11.3;99.9
43414;DHT22;29013;49.676;8.606;2022-09-16T23:35:11;11.2;99.9
43414;DHT22;29013;49.676;8.606;2022-09-16T23:40:36;11.1;99.9
43414;DHT22;29013;49.676;8.606;2022-09-16T23:45:59;11.1;99.9
43414;DHT22;29013;49.676;8.606;2022-09-16T23:51:27;11.0;99.9
43414;DHT22;29013;49.676;8.606;2022-09-16T23:56:52;11.0;99.9
